Makena — 2FSN9 — position and weather

sailwx.info

Track history (hours):
 
Tides and Currents Weather Stations Pressure Air Temp Water Temp Dewpoint Dewpoint Depression Visibility Wind Speed Wind Dir Waves Ship Positions

Makena

Last reported at 2017-Sep-24 13:58 UTC. Time now 2017-Oct-19 13:11 UTC.
Position N 37°07' E 025°44'.
Warning: this ship's position is 24 days out of date.

Length 15 m.

Type: Sailing vessel. MMSI: 235093872.

Date/timePositionNaut miles runAvg speedWind from/ knotsBaromVisibWave heightAir tempDewpointWater temp
2017-Sep-24 13:58N 37°07' E 025°44'3 6.1
2017-Sep-24 13:30N 37°09' E 025°41'10 5.7
2017-Sep-24 11:44N 37°12' E 025°30'1 3.6
2017-Sep-24 11:26N 37°12' E 025°29'2 5.7
2017-Sep-24 11:00N 37°11' E 025°26'3 6.2
2017-Sep-24 10:30N 37°11' E 025°22'7 5.2
2017-Sep-24 09:13N 37°08' E 025°14'1 2.6
2017-Sep-24 09:00N 37°08' E 025°14'  
2017-Sep-21 10:43N 37°08' E 025°14'0 0.3
2017-Sep-21 10:22N 37°08' E 025°14'0 0.0
2017-Sep-21 09:58N 37°08' E 025°14'0 0.0
2017-Sep-21 09:27N 37°08' E 025°14'0 0.1
2017-Sep-21 08:58N 37°08' E 025°14'0 0.6
2017-Sep-21 08:30N 37°08' E 025°14'3 5.1
2017-Sep-21 08:00N 37°10' E 025°15'2 3.6
2017-Sep-21 07:30N 37°08' E 025°15'1 0.0
2017-Sep-20 08:34N 37°07' E 025°14'0 0.1
2017-Sep-20 08:28N 37°07' E 025°14'0 0.0
2017-Sep-20 07:52N 37°07' E 025°14'0 0.0
2017-Sep-20 06:37N 37°07' E 025°14'0 0.0
2017-Sep-20 06:19N 37°07' E 025°14'0 0.0
2017-Sep-20 05:52N 37°07' E 025°14'0 0.0
2017-Sep-20 05:19N 37°07' E 025°14'0 0.0
2017-Sep-20 00:25N 37°07' E 025°14'0 0.0
2017-Sep-19 23:58N 37°07' E 025°14'0 0.0
2017-Sep-19 23:25N 37°07' E 025°14'0 0.0
2017-Sep-19 22:55N 37°07' E 025°14'0 0.0
2017-Sep-19 21:25N 37°07' E 025°14'0 0.0
2017-Sep-19 20:07N 37°07' E 025°14'0 0.0
2017-Sep-19 19:49N 37°07' E 025°14'0 0.0
2017-Sep-19 19:19N 37°07' E 025°14'0 0.0
2017-Sep-19 17:22N 37°07' E 025°14'0 0.0
2017-Sep-19 16:58N 37°07' E 025°14'0 0.0
2017-Sep-19 16:07N 37°07' E 025°14'0 0.0
2017-Sep-19 15:58N 37°07' E 025°14'0 0.0
2017-Sep-19 15:28N 37°07' E 025°14'0 0.0
2017-Sep-19 14:55N 37°07' E 025°14'0 0.0
2017-Sep-19 13:28N 37°07' E 025°14'1 2.7
2017-Sep-19 13:00N 37°09' E 025°14'3 5.6
2017-Sep-19 12:30N 37°11' E 025°14'3 5.2
2017-Sep-19 12:00N 37°14' E 025°14'2 3.5
2017-Sep-19 11:30N 37°16' E 025°15'1 2.4
2017-Sep-19 11:00N 37°17' E 025°15'2 3.3
2017-Sep-19 10:30N 37°18' E 025°16'2 4.1
2017-Sep-19 10:00N 37°20' E 025°17'1 2.9
2017-Sep-19 09:30N 37°22' E 025°17'3 6.0
2017-Sep-19 09:00N 37°25' E 025°17'3 5.2
2017-Sep-19 08:29N 37°27' E 025°19'1 1.8
2017-Sep-19 08:00N 37°28' E 025°20'0 0.0
2017-Sep-19 07:30N 37°28' E 025°20'0 0.0
2017-Sep-19 06:54N 37°28' E 025°20'0 0.0
2017-Sep-19 06:21N 37°28' E 025°20'0 0.0
2017-Sep-19 05:54N 37°28' E 025°20'0 0.0
2017-Sep-19 05:30N 37°28' E 025°20'0 0.0
2017-Sep-19 04:57N 37°28' E 025°20'0 0.0
2017-Sep-19 04:24N 37°28' E 025°20'0 0.0
2017-Sep-19 04:00N 37°28' E 025°20'0 0.0
2017-Sep-19 03:30N 37°28' E 025°20'0 0.0
2017-Sep-19 03:00N 37°28' E 025°20'0 0.0
2017-Sep-19 02:24N 37°28' E 025°20'0 0.0
2017-Sep-19 02:00N 37°28' E 025°20'0 0.0
2017-Sep-19 01:30N 37°28' E 025°20'0 0.0
2017-Sep-19 01:00N 37°28' E 025°20'0 0.0
2017-Sep-19 00:30N 37°28' E 025°20'0 0.0
2017-Sep-18 23:57N 37°28' E 025°20'0 0.0
2017-Sep-18 23:30N 37°28' E 025°20'0 0.0
2017-Sep-18 23:00N 37°28' E 025°20'0 0.0
2017-Sep-18 22:30N 37°28' E 025°20'0 0.0
2017-Sep-18 22:00N 37°28' E 025°20'0 0.0
2017-Sep-18 21:30N 37°28' E 025°20'0 0.0
2017-Sep-18 21:00N 37°28' E 025°20'0 0.0
2017-Sep-18 20:21N 37°28' E 025°20'0 0.0
2017-Sep-18 19:57N 37°28' E 025°20'0 0.0
2017-Sep-18 19:30N 37°28' E 025°20'0 0.0
2017-Sep-18 19:00N 37°28' E 025°20'0 0.0
2017-Sep-18 18:27N 37°28' E 025°20'0 0.0
2017-Sep-18 18:00N 37°28' E 025°20'0 0.0
2017-Sep-18 17:27N 37°28' E 025°20'0 0.0
2017-Sep-18 17:00N 37°28' E 025°20'0 0.0
2017-Sep-18 16:30N 37°28' E 025°20'0 0.0
2017-Sep-18 16:00N 37°28' E 025°20'0 0.0
2017-Sep-18 15:30N 37°28' E 025°20'0 0.0
2017-Sep-18 15:00N 37°28' E 025°20'0 0.0
2017-Sep-18 14:30N 37°28' E 025°20'0 0.0
2017-Sep-18 14:00N 37°28' E 025°20'0 0.0
2017-Sep-18 13:30N 37°28' E 025°20'0 0.0
2017-Sep-18 12:54N 37°28' E 025°20'0 0.0
2017-Sep-18 12:24N 37°28' E 025°20'0 0.0
2017-Sep-18 12:00N 37°28' E 025°20'0 0.0
2017-Sep-18 11:30N 37°28' E 025°20'0 0.0
2017-Sep-18 11:00N 37°28' E 025°20'0 0.0
2017-Sep-18 10:30N 37°28' E 025°20'0 0.0
2017-Sep-18 10:00N 37°28' E 025°20'0 0.0
2017-Sep-18 09:30N 37°28' E 025°20'0 0.0
2017-Sep-18 09:00N 37°28' E 025°20'0 0.0
2017-Sep-18 08:30N 37°28' E 025°20'0 0.0
2017-Sep-18 07:54N 37°28' E 025°20'0 0.0
2017-Sep-18 07:27N 37°28' E 025°20'0 0.0
2017-Sep-18 07:00N 37°28' E 025°20'0 0.0
2017-Sep-18 06:30N 37°28' E 025°20'0 0.0
2017-Sep-18 05:57N 37°28' E 025°20'0 0.0
2017-Sep-18 05:30N 37°28' E 025°20'0 0.0
2017-Sep-18 05:00N 37°28' E 025°20'0 0.0
2017-Sep-18 04:30N 37°28' E 025°20'0 0.0
2017-Sep-18 04:00N 37°28' E 025°20'0 0.0
2017-Sep-18 03:30N 37°28' E 025°20'0 0.0
2017-Sep-18 03:00N 37°28' E 025°20'0 0.0
2017-Sep-18 02:30N 37°28' E 025°20'0 0.0
2017-Sep-18 02:00N 37°28' E 025°20'0 0.0
2017-Sep-18 01:30N 37°28' E 025°20'0 0.0
2017-Sep-18 01:00N 37°28' E 025°20'0 0.0
2017-Sep-18 00:30N 37°28' E 025°20'0 0.0
2017-Sep-17 23:51N 37°28' E 025°20'0 0.0
2017-Sep-17 23:30N 37°28' E 025°20'0 0.0
2017-Sep-17 23:00N 37°28' E 025°20'0 0.0
2017-Sep-17 22:27N 37°28' E 025°20'0 0.0
2017-Sep-17 21:57N 37°28' E 025°20'0 0.0
2017-Sep-17 21:30N 37°28' E 025°20'0 0.0
2017-Sep-17 20:57N 37°28' E 025°20'0 0.0
2017-Sep-17 20:30N 37°28' E 025°20'0 0.0
2017-Sep-17 20:00N 37°28' E 025°20'0 0.0
2017-Sep-17 19:21N 37°28' E 025°20'0 0.0
2017-Sep-17 18:57N 37°28' E 025°20'0 0.0
2017-Sep-17 18:27N 37°28' E 025°20'0 0.0
2017-Sep-17 17:54N 37°28' E 025°20'0 0.0
2017-Sep-17 17:30N 37°28' E 025°20'0 0.0
2017-Sep-17 17:00N 37°28' E 025°20'0 0.0
2017-Sep-17 16:24N 37°28' E 025°20'0 0.0
2017-Sep-17 15:57N 37°28' E 025°20'0 0.0
2017-Sep-17 15:27N 37°28' E 025°20'0 0.0
2017-Sep-17 14:51N 37°28' E 025°20'0 0.0
2017-Sep-17 14:24N 37°28' E 025°20'0 0.0
2017-Sep-17 13:57N 37°28' E 025°20'0 0.0
2017-Sep-17 13:30N 37°28' E 025°20'0 0.0
2017-Sep-17 13:00N 37°28' E 025°20'0 0.9
2017-Sep-17 12:30N 37°28' E 025°19'3 6.6
2017-Sep-17 11:59N 37°31' E 025°17'4 7.9
2017-Sep-17 11:30N 37°34' E 025°17'4 7.4
2017-Sep-17 11:00N 37°38' E 025°16'  
Track history (hours):
 
Tides and Currents Weather Stations Pressure Air Temp Water Temp Dewpoint Dewpoint Depression Visibility Wind Speed Wind Dir Waves Ship Positions

Makena

Last reported at 2017-Sep-24 13:58 UTC. Time now 2017-Oct-19 13:11 UTC.
Position N 37°07' E 025°44'.
Warning: this ship's position is 24 days out of date.

Length 15 m.

Type: Sailing vessel. MMSI: 235093872.

Date/timePositionNaut miles runAvg speedWind from/ knotsBaromVisibWave heightAir tempDewpointWater temp
2017-Sep-24 13:58N 37°07' E 025°44'3 6.1
2017-Sep-24 13:30N 37°09' E 025°41'10 5.7
2017-Sep-24 11:44N 37°12' E 025°30'1 3.6
2017-Sep-24 11:26N 37°12' E 025°29'2 5.7
2017-Sep-24 11:00N 37°11' E 025°26'3 6.2
2017-Sep-24 10:30N 37°11' E 025°22'7 5.2
2017-Sep-24 09:13N 37°08' E 025°14'1 2.6
2017-Sep-24 09:00N 37°08' E 025°14'  
2017-Sep-21 10:43N 37°08' E 025°14'0 0.3
2017-Sep-21 10:22N 37°08' E 025°14'0 0.0
2017-Sep-21 09:58N 37°08' E 025°14'0 0.0
2017-Sep-21 09:27N 37°08' E 025°14'0 0.1
2017-Sep-21 08:58N 37°08' E 025°14'0 0.6
2017-Sep-21 08:30N 37°08' E 025°14'3 5.1
2017-Sep-21 08:00N 37°10' E 025°15'2 3.6
2017-Sep-21 07:30N 37°08' E 025°15'1 0.0
2017-Sep-20 08:34N 37°07' E 025°14'0 0.1
2017-Sep-20 08:28N 37°07' E 025°14'0 0.0
2017-Sep-20 07:52N 37°07' E 025°14'0 0.0
2017-Sep-20 06:37N 37°07' E 025°14'0 0.0
2017-Sep-20 06:19N 37°07' E 025°14'0 0.0
2017-Sep-20 05:52N 37°07' E 025°14'0 0.0
2017-Sep-20 05:19N 37°07' E 025°14'0 0.0
2017-Sep-20 00:25N 37°07' E 025°14'0 0.0
2017-Sep-19 23:58N 37°07' E 025°14'0 0.0
2017-Sep-19 23:25N 37°07' E 025°14'0 0.0
2017-Sep-19 22:55N 37°07' E 025°14'0 0.0
2017-Sep-19 21:25N 37°07' E 025°14'0 0.0
2017-Sep-19 20:07N 37°07' E 025°14'0 0.0
2017-Sep-19 19:49N 37°07' E 025°14'0 0.0
2017-Sep-19 19:19N 37°07' E 025°14'0 0.0
2017-Sep-19 17:22N 37°07' E 025°14'0 0.0
2017-Sep-19 16:58N 37°07' E 025°14'0 0.0
2017-Sep-19 16:07N 37°07' E 025°14'0 0.0
2017-Sep-19 15:58N 37°07' E 025°14'0 0.0
2017-Sep-19 15:28N 37°07' E 025°14'0 0.0
2017-Sep-19 14:55N 37°07' E 025°14'0 0.0
2017-Sep-19 13:28N 37°07' E 025°14'1 2.7
2017-Sep-19 13:00N 37°09' E 025°14'3 5.6
2017-Sep-19 12:30N 37°11' E 025°14'3 5.2
2017-Sep-19 12:00N 37°14' E 025°14'2 3.5
2017-Sep-19 11:30N 37°16' E 025°15'1 2.4
2017-Sep-19 11:00N 37°17' E 025°15'2 3.3
2017-Sep-19 10:30N 37°18' E 025°16'2 4.1
2017-Sep-19 10:00N 37°20' E 025°17'1 2.9
2017-Sep-19 09:30N 37°22' E 025°17'3 6.0
2017-Sep-19 09:00N 37°25' E 025°17'3 5.2
2017-Sep-19 08:29N 37°27' E 025°19'1 1.8
2017-Sep-19 08:00N 37°28' E 025°20'0 0.0
2017-Sep-19 07:30N 37°28' E 025°20'0 0.0
2017-Sep-19 06:54N 37°28' E 025°20'0 0.0
2017-Sep-19 06:21N 37°28' E 025°20'0 0.0
2017-Sep-19 05:54N 37°28' E 025°20'0 0.0
2017-Sep-19 05:30N 37°28' E 025°20'0 0.0
2017-Sep-19 04:57N 37°28' E 025°20'0 0.0
2017-Sep-19 04:24N 37°28' E 025°20'0 0.0
2017-Sep-19 04:00N 37°28' E 025°20'0 0.0
2017-Sep-19 03:30N 37°28' E 025°20'0 0.0
2017-Sep-19 03:00N 37°28' E 025°20'0 0.0
2017-Sep-19 02:24N 37°28' E 025°20'0 0.0
2017-Sep-19 02:00N 37°28' E 025°20'0 0.0
2017-Sep-19 01:30N 37°28' E 025°20'0 0.0
2017-Sep-19 01:00N 37°28' E 025°20'0 0.0
2017-Sep-19 00:30N 37°28' E 025°20'0 0.0
2017-Sep-18 23:57N 37°28' E 025°20'0 0.0
2017-Sep-18 23:30N 37°28' E 025°20'0 0.0
2017-Sep-18 23:00N 37°28' E 025°20'0 0.0
2017-Sep-18 22:30N 37°28' E 025°20'0 0.0
2017-Sep-18 22:00N 37°28' E 025°20'0 0.0
2017-Sep-18 21:30N 37°28' E 025°20'0 0.0
2017-Sep-18 21:00N 37°28' E 025°20'0 0.0
2017-Sep-18 20:21N 37°28' E 025°20'0 0.0
2017-Sep-18 19:57N 37°28' E 025°20'0 0.0
2017-Sep-18 19:30N 37°28' E 025°20'0 0.0
2017-Sep-18 19:00N 37°28' E 025°20'0 0.0
2017-Sep-18 18:27N 37°28' E 025°20'0 0.0
2017-Sep-18 18:00N 37°28' E 025°20'0 0.0
2017-Sep-18 17:27N 37°28' E 025°20'0 0.0
2017-Sep-18 17:00N 37°28' E 025°20'0 0.0
2017-Sep-18 16:30N 37°28' E 025°20'0 0.0
2017-Sep-18 16:00N 37°28' E 025°20'0 0.0
2017-Sep-18 15:30N 37°28' E 025°20'0 0.0
2017-Sep-18 15:00N 37°28' E 025°20'0 0.0
2017-Sep-18 14:30N 37°28' E 025°20'0 0.0
2017-Sep-18 14:00N 37°28' E 025°20'0 0.0
2017-Sep-18 13:30N 37°28' E 025°20'0 0.0
2017-Sep-18 12:54N 37°28' E 025°20'0 0.0
2017-Sep-18 12:24N 37°28' E 025°20'0 0.0
2017-Sep-18 12:00N 37°28' E 025°20'0 0.0
2017-Sep-18 11:30N 37°28' E 025°20'0 0.0
2017-Sep-18 11:00N 37°28' E 025°20'0 0.0
2017-Sep-18 10:30N 37°28' E 025°20'0 0.0
2017-Sep-18 10:00N 37°28' E 025°20'0 0.0
2017-Sep-18 09:30N 37°28' E 025°20'0 0.0
2017-Sep-18 09:00N 37°28' E 025°20'0 0.0
2017-Sep-18 08:30N 37°28' E 025°20'0 0.0
2017-Sep-18 07:54N 37°28' E 025°20'0 0.0
2017-Sep-18 07:27N 37°28' E 025°20'0 0.0
2017-Sep-18 07:00N 37°28' E 025°20'0 0.0
2017-Sep-18 06:30N 37°28' E 025°20'0 0.0
2017-Sep-18 05:57N 37°28' E 025°20'0 0.0
2017-Sep-18 05:30N 37°28' E 025°20'0 0.0
2017-Sep-18 05:00N 37°28' E 025°20'0 0.0
2017-Sep-18 04:30N 37°28' E 025°20'0 0.0
2017-Sep-18 04:00N 37°28' E 025°20'0 0.0
2017-Sep-18 03:30N 37°28' E 025°20'0 0.0
2017-Sep-18 03:00N 37°28' E 025°20'0 0.0
2017-Sep-18 02:30N 37°28' E 025°20'0 0.0
2017-Sep-18 02:00N 37°28' E 025°20'0 0.0
2017-Sep-18 01:30N 37°28' E 025°20'0 0.0
2017-Sep-18 01:00N 37°28' E 025°20'0 0.0
2017-Sep-18 00:30N 37°28' E 025°20'0 0.0
2017-Sep-17 23:51N 37°28' E 025°20'0 0.0
2017-Sep-17 23:30N 37°28' E 025°20'0 0.0
2017-Sep-17 23:00N 37°28' E 025°20'0 0.0
2017-Sep-17 22:27N 37°28' E 025°20'0 0.0
2017-Sep-17 21:57N 37°28' E 025°20'0 0.0
2017-Sep-17 21:30N 37°28' E 025°20'0 0.0
2017-Sep-17 20:57N 37°28' E 025°20'0 0.0
2017-Sep-17 20:30N 37°28' E 025°20'0 0.0
2017-Sep-17 20:00N 37°28' E 025°20'0 0.0
2017-Sep-17 19:21N 37°28' E 025°20'0 0.0
2017-Sep-17 18:57N 37°28' E 025°20'0 0.0
2017-Sep-17 18:27N 37°28' E 025°20'0 0.0
2017-Sep-17 17:54N 37°28' E 025°20'0 0.0
2017-Sep-17 17:30N 37°28' E 025°20'0 0.0
2017-Sep-17 17:00N 37°28' E 025°20'0 0.0
2017-Sep-17 16:24N 37°28' E 025°20'0 0.0
2017-Sep-17 15:57N 37°28' E 025°20'0 0.0
2017-Sep-17 15:27N 37°28' E 025°20'0 0.0
2017-Sep-17 14:51N 37°28' E 025°20'0 0.0
2017-Sep-17 14:24N 37°28' E 025°20'0 0.0
2017-Sep-17 13:57N 37°28' E 025°20'0 0.0
2017-Sep-17 13:30N 37°28' E 025°20'0 0.0
2017-Sep-17 13:00N 37°28' E 025°20'0 0.9
2017-Sep-17 12:30N 37°28' E 025°19'3 6.6
2017-Sep-17 11:59N 37°31' E 025°17'4 7.9
2017-Sep-17 11:30N 37°34' E 025°17'4 7.4
2017-Sep-17 11:00N 37°38' E 025°16'  

Dump ship's entire track history